sensor_id;sensor_type;location;lat;lon;timestamp;P1;durP1;ratioP1;P2;durP2;ratioP2
10900;SDS011;5503;53.208;10.392;2022-12-07T00:01:16;20.25;;;9.55;;
10900;SDS011;5503;53.208;10.392;2022-12-07T00:03:45;20.30;;;10.03;;
10900;SDS011;5503;53.208;10.392;2022-12-07T00:06:14;20.27;;;10.30;;
10900;SDS011;5503;53.208;10.392;2022-12-07T00:08:42;23.15;;;10.25;;
10900;SDS011;5503;53.208;10.392;2022-12-07T00:11:11;20.35;;;10.75;;
10900;SDS011;5503;53.208;10.392;2022-12-07T00:13:40;19.85;;;9.60;;
10900;SDS011;5503;53.208;10.392;2022-12-07T00:16:07;21.03;;;9.47;;
10900;SDS011;5503;53.208;10.392;2022-12-07T00:18:36;21.33;;;9.15;;
10900;SDS011;5503;53.208;10.392;2022-12-07T00:21:04;19.63;;;9.52;;
10900;SDS011;5503;53.208;10.392;2022-12-07T00:23:33;22.50;;;9.13;;
10900;SDS011;5503;53.208;10.392;2022-12-07T00:26:04;18.15;;;8.88;;
10900;SDS011;5503;53.208;10.392;2022-12-07T00:28:33;19.70;;;9.67;;
10900;SDS011;5503;53.208;10.392;2022-12-07T00:31:01;20.08;;;9.15;;
10900;SDS011;5503;53.208;10.392;2022-12-07T00:33:30;21.08;;;9.98;;
10900;SDS011;5503;53.208;10.392;2022-12-07T00:35:57;20.15;;;10.23;;
10900;SDS011;5503;53.208;10.392;2022-12-07T00:38:27;24.58;;;10.65;;
10900;SDS011;5503;53.208;10.392;2022-12-07T00:40:56;23.43;;;10.50;;
10900;SDS011;5503;53.208;10.392;2022-12-07T00:43:23;22.10;;;10.32;;
10900;SDS011;5503;53.208;10.392;2022-12-07T00:45:52;24.02;;;10.40;;
10900;SDS011;5503;53.208;10.392;2022-12-07T00:48:19;22.52;;;10.10;;
10900;SDS011;5503;53.208;10.392;2022-12-07T00:50:47;20.90;;;10.18;;
10900;SDS011;5503;53.208;10.392;2022-12-07T00:53:14;21.03;;;10.10;;
10900;SDS011;5503;53.208;10.392;2022-12-07T00:55:41;22.92;;;10.02;;
10900;SDS011;5503;53.208;10.392;2022-12-07T00:58:09;21.17;;;9.95;;
10900;SDS011;5503;53.208;10.392;2022-12-07T01:00:37;22.25;;;9.20;;
10900;SDS011;5503;53.208;10.392;2022-12-07T01:03:07;22.20;;;10.20;;
10900;SDS011;5503;53.208;10.392;2022-12-07T01:05:36;24.37;;;10.87;;
10900;SDS011;5503;53.208;10.392;2022-12-07T01:08:03;19.17;;;8.73;;
10900;SDS011;5503;53.208;10.392;2022-12-07T01:10:31;20.65;;;9.27;;
10900;SDS011;5503;53.208;10.392;2022-12-07T01:12:59;21.50;;;9.70;;
10900;SDS011;5503;53.208;10.392;2022-12-07T01:15:26;22.33;;;10.27;;
10900;SDS011;5503;53.208;10.392;2022-12-07T01:17:53;23.07;;;9.80;;
10900;SDS011;5503;53.208;10.392;2022-12-07T01:20:22;19.98;;;8.43;;
10900;SDS011;5503;53.208;10.392;2022-12-07T01:22:49;17.33;;;8.00;;
10900;SDS011;5503;53.208;10.392;2022-12-07T01:25:17;21.48;;;9.82;;
10900;SDS011;5503;53.208;10.392;2022-12-07T01:27:44;20.00;;;9.63;;
10900;SDS011;5503;53.208;10.392;2022-12-07T01:30:12;20.13;;;9.68;;
10900;SDS011;5503;53.208;10.392;2022-12-07T01:32:40;16.13;;;8.57;;
10900;SDS011;5503;53.208;10.392;2022-12-07T01:35:07;18.67;;;9.10;;
10900;SDS011;5503;53.208;10.392;2022-12-07T01:37:36;19.88;;;9.32;;
10900;SDS011;5503;53.208;10.392;2022-12-07T01:40:05;19.20;;;9.73;;
10900;SDS011;5503;53.208;10.392;2022-12-07T01:42:33;19.50;;;9.40;;
10900;SDS011;5503;53.208;10.392;2022-12-07T01:48:04;18.05;;;8.57;;
10900;SDS011;5503;53.208;10.392;2022-12-07T01:50:33;19.33;;;9.32;;
10900;SDS011;5503;53.208;10.392;2022-12-07T01:53:02;22.52;;;8.68;;
10900;SDS011;5503;53.208;10.392;2022-12-07T01:55:32;19.77;;;9.30;;
10900;SDS011;5503;53.208;10.392;2022-12-07T01:58:03;20.67;;;9.63;;
10900;SDS011;5503;53.208;10.392;2022-12-07T02:00:31;21.15;;;9.43;;
10900;SDS011;5503;53.208;10.392;2022-12-07T02:03:00;16.25;;;8.43;;
10900;SDS011;5503;53.208;10.392;2022-12-07T02:05:32;24.35;;;9.38;;
10900;SDS011;5503;53.208;10.392;2022-12-07T02:08:03;19.70;;;9.77;;
10900;SDS011;5503;53.208;10.392;2022-12-07T02:13:08;20.00;;;8.65;;
10900;SDS011;5503;53.208;10.392;2022-12-07T02:15:41;17.67;;;7.00;;
10900;SDS011;5503;53.208;10.392;2022-12-07T02:18:28;18.17;;;8.43;;
10900;SDS011;5503;53.208;10.392;2022-12-07T02:21:09;18.27;;;8.30;;
10900;SDS011;5503;53.208;10.392;2022-12-07T02:23:45;21.67;;;8.85;;
10900;SDS011;5503;53.208;10.392;2022-12-07T02:26:55;21.83;;;9.30;;
10900;SDS011;5503;53.208;10.392;2022-12-07T02:29:44;19.90;;;8.65;;
10900;SDS011;5503;53.208;10.392;2022-12-07T02:32:16;21.08;;;8.73;;
10900;SDS011;5503;53.208;10.392;2022-12-07T02:34:50;20.23;;;8.30;;
10900;SDS011;5503;53.208;10.392;2022-12-07T02:37:25;24.38;;;8.20;;
10900;SDS011;5503;53.208;10.392;2022-12-07T02:40:01;18.73;;;9.90;;
10900;SDS011;5503;53.208;10.392;2022-12-07T02:42:33;22.10;;;8.80;;
10900;SDS011;5503;53.208;10.392;2022-12-07T02:45:07;18.55;;;8.07;;
10900;SDS011;5503;53.208;10.392;2022-12-07T02:47:36;19.80;;;8.93;;
10900;SDS011;5503;53.208;10.392;2022-12-07T02:50:05;19.67;;;8.13;;
10900;SDS011;5503;53.208;10.392;2022-12-07T02:52:33;21.42;;;8.68;;
10900;SDS011;5503;53.208;10.392;2022-12-07T02:55:00;17.52;;;7.45;;
10900;SDS011;5503;53.208;10.392;2022-12-07T02:57:32;18.48;;;7.78;;
10900;SDS011;5503;53.208;10.392;2022-12-07T03:00:21;15.80;;;7.77;;
10900;SDS011;5503;53.208;10.392;2022-12-07T03:02:50;17.90;;;7.22;;
10900;SDS011;5503;53.208;10.392;2022-12-07T03:05:23;19.30;;;7.45;;
10900;SDS011;5503;53.208;10.392;2022-12-07T03:08:04;14.93;;;6.82;;
10900;SDS011;5503;53.208;10.392;2022-12-07T03:10:40;15.70;;;6.35;;
10900;SDS011;5503;53.208;10.392;2022-12-07T03:13:22;9.80;;;5.32;;
10900;SDS011;5503;53.208;10.392;2022-12-07T03:15:57;16.73;;;6.65;;
10900;SDS011;5503;53.208;10.392;2022-12-07T03:18:29;10.93;;;5.43;;
10900;SDS011;5503;53.208;10.392;2022-12-07T03:20:59;22.33;;;5.47;;
10900;SDS011;5503;53.208;10.392;2022-12-07T03:23:30;11.88;;;5.40;;
10900;SDS011;5503;53.208;10.392;2022-12-07T03:26:01;12.40;;;6.10;;
10900;SDS011;5503;53.208;10.392;2022-12-07T03:28:31;14.05;;;5.07;;
10900;SDS011;5503;53.208;10.392;2022-12-07T03:31:02;12.07;;;5.30;;
10900;SDS011;5503;53.208;10.392;2022-12-07T03:33:36;10.57;;;4.50;;
10900;SDS011;5503;53.208;10.392;2022-12-07T03:36:08;11.20;;;5.00;;
10900;SDS011;5503;53.208;10.392;2022-12-07T03:38:42;15.80;;;5.10;;
10900;SDS011;5503;53.208;10.392;2022-12-07T03:41:14;11.10;;;5.32;;
10900;SDS011;5503;53.208;10.392;2022-12-07T03:43:46;7.95;;;4.22;;
10900;SDS011;5503;53.208;10.392;2022-12-07T03:46:17;12.10;;;5.03;;
10900;SDS011;5503;53.208;10.392;2022-12-07T03:48:51;8.70;;;4.47;;
10900;SDS011;5503;53.208;10.392;2022-12-07T03:51:25;14.23;;;5.05;;
10900;SDS011;5503;53.208;10.392;2022-12-07T03:53:58;11.20;;;4.85;;
10900;SDS011;5503;53.208;10.392;2022-12-07T03:56:31;14.75;;;4.82;;
10900;SDS011;5503;53.208;10.392;2022-12-07T03:58:59;13.57;;;4.78;;
10900;SDS011;5503;53.208;10.392;2022-12-07T04:01:28;13.25;;;5.07;;
10900;SDS011;5503;53.208;10.392;2022-12-07T04:03:55;9.02;;;4.68;;
10900;SDS011;5503;53.208;10.392;2022-12-07T04:06:22;11.90;;;4.22;;
10900;SDS011;5503;53.208;10.392;2022-12-07T04:08:49;10.88;;;4.18;;
10900;SDS011;5503;53.208;10.392;2022-12-07T04:11:16;12.18;;;4.32;;
10900;SDS011;5503;53.208;10.392;2022-12-07T04:13:44;9.18;;;4.43;;
10900;SDS011;5503;53.208;10.392;2022-12-07T04:16:30;14.10;;;5.17;;
10900;SDS011;5503;53.208;10.392;2022-12-07T04:18:58;11.38;;;4.53;;
10900;SDS011;5503;53.208;10.392;2022-12-07T04:21:25;8.27;;;4.57;;
10900;SDS011;5503;53.208;10.392;2022-12-07T04:23:52;15.27;;;5.50;;
10900;SDS011;5503;53.208;10.392;2022-12-07T04:26:19;10.73;;;4.70;;
10900;SDS011;5503;53.208;10.392;2022-12-07T04:28:47;11.13;;;4.33;;
10900;SDS011;5503;53.208;10.392;2022-12-07T04:31:14;9.27;;;4.15;;
10900;SDS011;5503;53.208;10.392;2022-12-07T04:33:42;11.25;;;3.85;;
10900;SDS011;5503;53.208;10.392;2022-12-07T04:36:09;12.05;;;4.68;;
10900;SDS011;5503;53.208;10.392;2022-12-07T04:38:36;10.93;;;4.07;;
10900;SDS011;5503;53.208;10.392;2022-12-07T04:41:04;15.20;;;4.47;;
10900;SDS011;5503;53.208;10.392;2022-12-07T04:43:31;8.73;;;3.60;;
10900;SDS011;5503;53.208;10.392;2022-12-07T04:45:59;9.70;;;3.83;;
10900;SDS011;5503;53.208;10.392;2022-12-07T04:48:26;8.40;;;3.80;;
10900;SDS011;5503;53.208;10.392;2022-12-07T04:50:55;10.38;;;4.40;;
10900;SDS011;5503;53.208;10.392;2022-12-07T04:53:22;11.27;;;3.80;;
10900;SDS011;5503;53.208;10.392;2022-12-07T04:55:49;9.25;;;4.68;;
10900;SDS011;5503;53.208;10.392;2022-12-07T04:58:16;6.95;;;3.20;;
10900;SDS011;5503;53.208;10.392;2022-12-07T05:00:43;7.05;;;3.40;;
10900;SDS011;5503;53.208;10.392;2022-12-07T05:03:11;5.00;;;2.72;;
10900;SDS011;5503;53.208;10.392;2022-12-07T05:05:39;8.17;;;3.77;;
10900;SDS011;5503;53.208;10.392;2022-12-07T05:08:08;8.85;;;3.85;;
10900;SDS011;5503;53.208;10.392;2022-12-07T05:10:35;13.30;;;4.20;;
10900;SDS011;5503;53.208;10.392;2022-12-07T05:13:02;9.52;;;4.00;;
10900;SDS011;5503;53.208;10.392;2022-12-07T05:15:29;9.93;;;4.20;;
10900;SDS011;5503;53.208;10.392;2022-12-07T05:17:57;9.27;;;3.57;;
10900;SDS011;5503;53.208;10.392;2022-12-07T05:20:24;9.23;;;4.10;;
10900;SDS011;5503;53.208;10.392;2022-12-07T05:22:51;11.48;;;3.85;;
10900;SDS011;5503;53.208;10.392;2022-12-07T05:25:20;6.55;;;3.55;;
10900;SDS011;5503;53.208;10.392;2022-12-07T05:27:46;9.88;;;4.28;;
10900;SDS011;5503;53.208;10.392;2022-12-07T05:30:14;11.67;;;4.17;;
10900;SDS011;5503;53.208;10.392;2022-12-07T05:32:41;14.27;;;3.83;;
10900;SDS011;5503;53.208;10.392;2022-12-07T05:35:09;12.77;;;3.28;;
10900;SDS011;5503;53.208;10.392;2022-12-07T05:37:36;9.93;;;4.05;;
10900;SDS011;5503;53.208;10.392;2022-12-07T05:40:03;7.68;;;3.55;;
10900;SDS011;5503;53.208;10.392;2022-12-07T05:42:32;5.97;;;3.30;;
10900;SDS011;5503;53.208;10.392;2022-12-07T05:45:01;7.43;;;3.20;;
10900;SDS011;5503;53.208;10.392;2022-12-07T05:47:28;8.35;;;3.28;;
10900;SDS011;5503;53.208;10.392;2022-12-07T05:49:55;7.45;;;3.40;;
10900;SDS011;5503;53.208;10.392;2022-12-07T05:52:22;13.95;;;3.92;;
10900;SDS011;5503;53.208;10.392;2022-12-07T05:54:49;9.30;;;3.87;;
10900;SDS011;5503;53.208;10.392;2022-12-07T05:57:17;11.10;;;3.75;;
10900;SDS011;5503;53.208;10.392;2022-12-07T05:59:45;12.75;;;3.75;;
10900;SDS011;5503;53.208;10.392;2022-12-07T06:02:12;7.43;;;3.30;;
10900;SDS011;5503;53.208;10.392;2022-12-07T06:04:40;8.38;;;3.47;;
10900;SDS011;5503;53.208;10.392;2022-12-07T06:07:09;8.87;;;3.97;;
10900;SDS011;5503;53.208;10.392;2022-12-07T06:09:37;9.95;;;3.88;;
10900;SDS011;5503;53.208;10.392;2022-12-07T06:12:04;11.23;;;4.05;;
10900;SDS011;5503;53.208;10.392;2022-12-07T06:14:51;9.13;;;3.88;;
10900;SDS011;5503;53.208;10.392;2022-12-07T06:17:18;7.55;;;3.92;;
10900;SDS011;5503;53.208;10.392;2022-12-07T06:19:45;11.00;;;3.97;;
10900;SDS011;5503;53.208;10.392;2022-12-07T06:22:12;7.10;;;3.08;;
10900;SDS011;5503;53.208;10.392;2022-12-07T06:24:41;8.38;;;3.40;;
10900;SDS011;5503;53.208;10.392;2022-12-07T06:27:08;9.13;;;4.07;;
10900;SDS011;5503;53.208;10.392;2022-12-07T06:29:36;7.28;;;3.80;;
10900;SDS011;5503;53.208;10.392;2022-12-07T06:32:05;6.80;;;3.53;;
10900;SDS011;5503;53.208;10.392;2022-12-07T06:34:32;11.18;;;3.97;;
10900;SDS011;5503;53.208;10.392;2022-12-07T06:36:59;7.75;;;4.00;;
10900;SDS011;5503;53.208;10.392;2022-12-07T06:39:27;9.52;;;4.00;;
10900;SDS011;5503;53.208;10.392;2022-12-07T06:41:54;8.15;;;3.90;;
10900;SDS011;5503;53.208;10.392;2022-12-07T06:44:22;7.03;;;3.93;;
10900;SDS011;5503;53.208;10.392;2022-12-07T06:46:49;8.35;;;3.72;;
10900;SDS011;5503;53.208;10.392;2022-12-07T06:49:18;9.68;;;4.13;;
10900;SDS011;5503;53.208;10.392;2022-12-07T06:51:45;8.48;;;4.07;;
10900;SDS011;5503;53.208;10.392;2022-12-07T06:54:13;10.77;;;4.18;;
10900;SDS011;5503;53.208;10.392;2022-12-07T06:56:41;12.10;;;3.90;;
10900;SDS011;5503;53.208;10.392;2022-12-07T06:59:08;12.10;;;3.90;;
10900;SDS011;5503;53.208;10.392;2022-12-07T07:01:35;11.45;;;3.50;;
10900;SDS011;5503;53.208;10.392;2022-12-07T07:04:03;10.60;;;4.00;;
10900;SDS011;5503;53.208;10.392;2022-12-07T07:06:32;7.22;;;3.22;;
10900;SDS011;5503;53.208;10.392;2022-12-07T07:08:59;7.27;;;3.67;;
10900;SDS011;5503;53.208;10.392;2022-12-07T07:11:26;9.80;;;3.22;;
10900;SDS011;5503;53.208;10.392;2022-12-07T07:13:53;9.98;;;3.67;;
10900;SDS011;5503;53.208;10.392;2022-12-07T07:16:22;11.20;;;3.60;;
10900;SDS011;5503;53.208;10.392;2022-12-07T07:18:50;5.50;;;3.00;;
10900;SDS011;5503;53.208;10.392;2022-12-07T07:21:17;12.80;;;3.67;;
10900;SDS011;5503;53.208;10.392;2022-12-07T07:23:45;10.93;;;2.85;;
10900;SDS011;5503;53.208;10.392;2022-12-07T07:26:12;9.77;;;2.90;;
10900;SDS011;5503;53.208;10.392;2022-12-07T07:28:40;9.50;;;2.90;;
10900;SDS011;5503;53.208;10.392;2022-12-07T07:31:07;6.38;;;2.90;;
10900;SDS011;5503;53.208;10.392;2022-12-07T07:33:34;7.50;;;3.07;;
10900;SDS011;5503;53.208;10.392;2022-12-07T07:36:01;5.65;;;2.90;;
10900;SDS011;5503;53.208;10.392;2022-12-07T07:38:28;8.63;;;3.15;;
10900;SDS011;5503;53.208;10.392;2022-12-07T07:40:57;8.85;;;3.45;;
10900;SDS011;5503;53.208;10.392;2022-12-07T07:43:24;7.60;;;3.22;;
10900;SDS011;5503;53.208;10.392;2022-12-07T07:45:51;9.53;;;3.33;;
10900;SDS011;5503;53.208;10.392;2022-12-07T07:48:18;9.65;;;3.20;;
10900;SDS011;5503;53.208;10.392;2022-12-07T07:50:47;6.38;;;2.92;;
10900;SDS011;5503;53.208;10.392;2022-12-07T07:53:15;8.85;;;3.08;;
10900;SDS011;5503;53.208;10.392;2022-12-07T07:55:46;7.75;;;3.67;;
10900;SDS011;5503;53.208;10.392;2022-12-07T07:58:18;9.33;;;3.90;;
10900;SDS011;5503;53.208;10.392;2022-12-07T08:00:45;9.30;;;2.90;;
10900;SDS011;5503;53.208;10.392;2022-12-07T08:03:12;7.13;;;3.40;;
10900;SDS011;5503;53.208;10.392;2022-12-07T08:05:39;8.57;;;3.50;;
10900;SDS011;5503;53.208;10.392;2022-12-07T08:08:06;6.38;;;3.30;;
10900;SDS011;5503;53.208;10.392;2022-12-07T08:10:34;7.23;;;4.37;;
10900;SDS011;5503;53.208;10.392;2022-12-07T08:13:02;6.03;;;3.25;;
10900;SDS011;5503;53.208;10.392;2022-12-07T08:15:40;8.88;;;3.15;;
10900;SDS011;5503;53.208;10.392;2022-12-07T08:18:08;7.63;;;3.25;;
10900;SDS011;5503;53.208;10.392;2022-12-07T08:20:35;6.65;;;3.75;;
10900;SDS011;5503;53.208;10.392;2022-12-07T08:23:03;7.83;;;3.27;;
10900;SDS011;5503;53.208;10.392;2022-12-07T08:25:31;6.78;;;3.60;;
10900;SDS011;5503;53.208;10.392;2022-12-07T08:27:58;8.13;;;3.25;;
10900;SDS011;5503;53.208;10.392;2022-12-07T08:30:26;7.32;;;3.33;;
10900;SDS011;5503;53.208;10.392;2022-12-07T08:32:55;8.02;;;3.25;;
10900;SDS011;5503;53.208;10.392;2022-12-07T08:35:22;7.27;;;3.17;;
10900;SDS011;5503;53.208;10.392;2022-12-07T08:37:50;8.88;;;3.50;;
10900;SDS011;5503;53.208;10.392;2022-12-07T08:40:17;5.68;;;3.45;;
10900;SDS011;5503;53.208;10.392;2022-12-07T08:42:48;6.82;;;3.35;;
10900;SDS011;5503;53.208;10.392;2022-12-07T08:45:15;5.80;;;3.40;;
10900;SDS011;5503;53.208;10.392;2022-12-07T08:47:44;5.70;;;3.33;;
10900;SDS011;5503;53.208;10.392;2022-12-07T08:50:16;8.82;;;3.20;;
10900;SDS011;5503;53.208;10.392;2022-12-07T08:52:43;8.07;;;3.20;;
10900;SDS011;5503;53.208;10.392;2022-12-07T08:55:11;6.90;;;4.22;;
10900;SDS011;5503;53.208;10.392;2022-12-07T08:57:38;10.07;;;3.92;;
10900;SDS011;5503;53.208;10.392;2022-12-07T09:00:08;7.73;;;3.50;;
10900;SDS011;5503;53.208;10.392;2022-12-07T09:02:36;13.88;;;6.95;;
10900;SDS011;5503;53.208;10.392;2022-12-07T09:05:03;20.13;;;9.95;;
10900;SDS011;5503;53.208;10.392;2022-12-07T09:07:32;19.30;;;7.05;;
10900;SDS011;5503;53.208;10.392;2022-12-07T09:10:00;16.75;;;7.80;;
10900;SDS011;5503;53.208;10.392;2022-12-07T09:12:27;17.53;;;5.93;;
10900;SDS011;5503;53.208;10.392;2022-12-07T09:14:54;12.80;;;5.60;;
10900;SDS011;5503;53.208;10.392;2022-12-07T09:17:22;5.38;;;2.60;;
10900;SDS011;5503;53.208;10.392;2022-12-07T09:19:49;9.48;;;3.67;;
10900;SDS011;5503;53.208;10.392;2022-12-07T09:22:16;7.57;;;3.80;;
10900;SDS011;5503;53.208;10.392;2022-12-07T09:24:45;7.17;;;3.20;;
10900;SDS011;5503;53.208;10.392;2022-12-07T09:27:12;8.98;;;3.30;;
10900;SDS011;5503;53.208;10.392;2022-12-07T09:29:39;8.55;;;3.20;;
10900;SDS011;5503;53.208;10.392;2022-12-07T09:32:06;8.75;;;3.45;;
10900;SDS011;5503;53.208;10.392;2022-12-07T09:34:33;5.43;;;3.20;;
10900;SDS011;5503;53.208;10.392;2022-12-07T09:37:01;8.60;;;2.67;;
10900;SDS011;5503;53.208;10.392;2022-12-07T09:39:29;9.25;;;3.03;;
10900;SDS011;5503;53.208;10.392;2022-12-07T09:41:57;16.92;;;6.93;;
10900;SDS011;5503;53.208;10.392;2022-12-07T09:44:25;24.55;;;11.13;;
10900;SDS011;5503;53.208;10.392;2022-12-07T09:46:53;9.25;;;5.32;;
10900;SDS011;5503;53.208;10.392;2022-12-07T09:49:22;12.67;;;6.20;;
10900;SDS011;5503;53.208;10.392;2022-12-07T09:51:59;10.52;;;4.85;;
10900;SDS011;5503;53.208;10.392;2022-12-07T09:54:28;10.77;;;4.40;;
10900;SDS011;5503;53.208;10.392;2022-12-07T09:56:58;9.40;;;3.85;;
10900;SDS011;5503;53.208;10.392;2022-12-07T09:59:25;11.70;;;4.18;;
10900;SDS011;5503;53.208;10.392;2022-12-07T10:01:53;7.83;;;4.17;;
10900;SDS011;5503;53.208;10.392;2022-12-07T10:04:21;13.75;;;7.47;;
10900;SDS011;5503;53.208;10.392;2022-12-07T10:06:49;7.43;;;3.95;;
10900;SDS011;5503;53.208;10.392;2022-12-07T10:09:18;8.02;;;3.50;;
10900;SDS011;5503;53.208;10.392;2022-12-07T10:12:00;10.00;;;4.68;;
10900;SDS011;5503;53.208;10.392;2022-12-07T10:14:29;8.43;;;2.90;;
10900;SDS011;5503;53.208;10.392;2022-12-07T10:16:58;6.55;;;3.17;;
10900;SDS011;5503;53.208;10.392;2022-12-07T10:19:26;7.28;;;3.13;;
10900;SDS011;5503;53.208;10.392;2022-12-07T10:22:02;6.85;;;2.85;;
10900;SDS011;5503;53.208;10.392;2022-12-07T10:24:31;7.38;;;2.90;;
10900;SDS011;5503;53.208;10.392;2022-12-07T10:27:00;6.37;;;2.60;;
10900;SDS011;5503;53.208;10.392;2022-12-07T10:29:28;7.20;;;2.75;;
10900;SDS011;5503;53.208;10.392;2022-12-07T10:31:58;5.97;;;2.63;;
10900;SDS011;5503;53.208;10.392;2022-12-07T10:34:26;6.68;;;2.60;;
10900;SDS011;5503;53.208;10.392;2022-12-07T10:37:06;6.75;;;2.47;;
10900;SDS011;5503;53.208;10.392;2022-12-07T10:39:41;7.30;;;1.83;;
10900;SDS011;5503;53.208;10.392;2022-12-07T10:42:15;6.57;;;2.13;;
10900;SDS011;5503;53.208;10.392;2022-12-07T10:44:43;7.20;;;3.40;;
10900;SDS011;5503;53.208;10.392;2022-12-07T10:47:21;9.88;;;4.85;;
10900;SDS011;5503;53.208;10.392;2022-12-07T10:50:14;4.72;;;2.45;;
10900;SDS011;5503;53.208;10.392;2022-12-07T10:52:57;7.13;;;2.77;;
10900;SDS011;5503;53.208;10.392;2022-12-07T10:55:52;9.00;;;5.13;;
10900;SDS011;5503;53.208;10.392;2022-12-07T10:58:34;6.07;;;3.38;;
10900;SDS011;5503;53.208;10.392;2022-12-07T11:01:12;4.65;;;1.77;;
10900;SDS011;5503;53.208;10.392;2022-12-07T11:03:53;6.18;;;1.83;;
10900;SDS011;5503;53.208;10.392;2022-12-07T11:06:32;3.53;;;1.23;;
10900;SDS011;5503;53.208;10.392;2022-12-07T11:09:10;5.80;;;1.50;;
10900;SDS011;5503;53.208;10.392;2022-12-07T11:11:53;4.65;;;1.70;;
10900;SDS011;5503;53.208;10.392;2022-12-07T11:14:33;5.72;;;1.80;;
10900;SDS011;5503;53.208;10.392;2022-12-07T11:17:07;5.82;;;1.85;;
10900;SDS011;5503;53.208;10.392;2022-12-07T11:19:45;4.75;;;1.70;;
10900;SDS011;5503;53.208;10.392;2022-12-07T11:22:28;4.25;;;2.20;;
10900;SDS011;5503;53.208;10.392;2022-12-07T11:25:02;3.85;;;1.80;;
10900;SDS011;5503;53.208;10.392;2022-12-07T11:27:44;6.22;;;2.38;;
10900;SDS011;5503;53.208;10.392;2022-12-07T11:30:20;4.97;;;1.67;;
10900;SDS011;5503;53.208;10.392;2022-12-07T11:32:56;9.30;;;4.50;;
10900;SDS011;5503;53.208;10.392;2022-12-07T11:35:38;6.13;;;2.15;;
10900;SDS011;5503;53.208;10.392;2022-12-07T11:38:13;8.10;;;3.88;;
10900;SDS011;5503;53.208;10.392;2022-12-07T11:40:43;8.70;;;4.80;;
10900;SDS011;5503;53.208;10.392;2022-12-07T11:43:15;12.48;;;6.32;;
10900;SDS011;5503;53.208;10.392;2022-12-07T11:45:51;17.40;;;8.53;;
10900;SDS011;5503;53.208;10.392;2022-12-07T11:48:25;19.75;;;11.73;;
10900;SDS011;5503;53.208;10.392;2022-12-07T11:50:59;16.88;;;10.50;;
10900;SDS011;5503;53.208;10.392;2022-12-07T11:53:28;22.42;;;10.52;;
10900;SDS011;5503;53.208;10.392;2022-12-07T11:56:00;19.23;;;9.82;;
10900;SDS011;5503;53.208;10.392;2022-12-07T11:58:39;7.65;;;3.38;;
10900;SDS011;5503;53.208;10.392;2022-12-07T12:01:21;6.88;;;3.03;;
10900;SDS011;5503;53.208;10.392;2022-12-07T12:03:56;8.60;;;4.30;;
10900;SDS011;5503;53.208;10.392;2022-12-07T12:06:29;5.35;;;3.08;;
10900;SDS011;5503;53.208;10.392;2022-12-07T12:08:58;7.25;;;2.88;;
10900;SDS011;5503;53.208;10.392;2022-12-07T12:11:35;5.43;;;3.10;;
10900;SDS011;5503;53.208;10.392;2022-12-07T12:14:17;12.00;;;2.90;;
10900;SDS011;5503;53.208;10.392;2022-12-07T12:19:57;6.95;;;2.55;;
10900;SDS011;5503;53.208;10.392;2022-12-07T12:22:28;6.40;;;2.80;;
10900;SDS011;5503;53.208;10.392;2022-12-07T12:25:02;6.33;;;2.93;;
10900;SDS011;5503;53.208;10.392;2022-12-07T12:27:32;5.25;;;2.15;;
10900;SDS011;5503;53.208;10.392;2022-12-07T12:30:01;6.63;;;2.55;;
10900;SDS011;5503;53.208;10.392;2022-12-07T12:32:34;6.65;;;2.35;;
10900;SDS011;5503;53.208;10.392;2022-12-07T12:37:48;6.70;;;2.35;;
10900;SDS011;5503;53.208;10.392;2022-12-07T12:55:29;11.77;;;3.10;;
10900;SDS011;5503;53.208;10.392;2022-12-07T12:58:29;5.43;;;2.50;;
10900;SDS011;5503;53.208;10.392;2022-12-07T13:10:34;11.45;;;4.25;;
10900;SDS011;5503;53.208;10.392;2022-12-07T13:13:05;11.13;;;6.45;;
10900;SDS011;5503;53.208;10.392;2022-12-07T13:22:38;58.97;;;15.57;;
10900;SDS011;5503;53.208;10.392;2022-12-07T13:25:10;22.15;;;8.48;;
10900;SDS011;5503;53.208;10.392;2022-12-07T13:27:40;12.02;;;5.85;;
10900;SDS011;5503;53.208;10.392;2022-12-07T13:30:15;8.13;;;4.28;;
10900;SDS011;5503;53.208;10.392;2022-12-07T13:32:49;10.15;;;2.33;;
10900;SDS011;5503;53.208;10.392;2022-12-07T13:35:28;7.10;;;3.60;;
10900;SDS011;5503;53.208;10.392;2022-12-07T13:37:57;6.40;;;2.97;;
10900;SDS011;5503;53.208;10.392;2022-12-07T13:40:24;5.85;;;2.90;;
10900;SDS011;5503;53.208;10.392;2022-12-07T13:42:58;8.13;;;2.40;;
10900;SDS011;5503;53.208;10.392;2022-12-07T13:45:28;9.32;;;3.05;;
10900;SDS011;5503;53.208;10.392;2022-12-07T13:48:15;5.27;;;2.50;;
10900;SDS011;5503;53.208;10.392;2022-12-07T13:50:52;4.40;;;2.00;;
10900;SDS011;5503;53.208;10.392;2022-12-07T13:53:20;6.18;;;2.85;;
10900;SDS011;5503;53.208;10.392;2022-12-07T13:55:47;9.35;;;2.42;;
10900;SDS011;5503;53.208;10.392;2022-12-07T13:58:15;4.95;;;2.70;;
10900;SDS011;5503;53.208;10.392;2022-12-07T14:00:44;9.40;;;2.40;;
10900;SDS011;5503;53.208;10.392;2022-12-07T14:03:25;8.52;;;3.40;;
10900;SDS011;5503;53.208;10.392;2022-12-07T14:06:13;8.05;;;2.78;;
10900;SDS011;5503;53.208;10.392;2022-12-07T14:08:50;8.77;;;2.47;;
10900;SDS011;5503;53.208;10.392;2022-12-07T14:11:20;4.13;;;1.65;;
10900;SDS011;5503;53.208;10.392;2022-12-07T14:13:51;5.13;;;2.23;;
10900;SDS011;5503;53.208;10.392;2022-12-07T14:16:26;4.55;;;2.05;;
10900;SDS011;5503;53.208;10.392;2022-12-07T14:18:57;5.88;;;2.17;;
10900;SDS011;5503;53.208;10.392;2022-12-07T14:21:25;4.93;;;2.10;;
10900;SDS011;5503;53.208;10.392;2022-12-07T14:26:44;5.95;;;2.38;;
10900;SDS011;5503;53.208;10.392;2022-12-07T14:29:19;6.10;;;2.65;;
10900;SDS011;5503;53.208;10.392;2022-12-07T14:32:01;8.05;;;2.40;;
10900;SDS011;5503;53.208;10.392;2022-12-07T14:34:56;8.82;;;2.60;;
10900;SDS011;5503;53.208;10.392;2022-12-07T14:37:25;8.13;;;2.80;;
10900;SDS011;5503;53.208;10.392;2022-12-07T14:39:53;8.53;;;2.30;;
10900;SDS011;5503;53.208;10.392;2022-12-07T14:42:20;4.55;;;2.20;;
10900;SDS011;5503;53.208;10.392;2022-12-07T14:44:52;6.88;;;3.03;;
10900;SDS011;5503;53.208;10.392;2022-12-07T14:47:21;11.73;;;3.40;;
10900;SDS011;5503;53.208;10.392;2022-12-07T14:49:48;10.35;;;4.00;;
10900;SDS011;5503;53.208;10.392;2022-12-07T14:52:16;8.47;;;2.77;;
10900;SDS011;5503;53.208;10.392;2022-12-07T14:54:45;6.32;;;2.92;;
10900;SDS011;5503;53.208;10.392;2022-12-07T14:57:12;8.65;;;3.70;;
10900;SDS011;5503;53.208;10.392;2022-12-07T14:59:41;14.40;;;5.47;;
10900;SDS011;5503;53.208;10.392;2022-12-07T15:02:09;18.83;;;8.27;;
10900;SDS011;5503;53.208;10.392;2022-12-07T15:04:41;18.97;;;6.63;;
10900;SDS011;5503;53.208;10.392;2022-12-07T15:07:10;7.30;;;3.22;;
10900;SDS011;5503;53.208;10.392;2022-12-07T15:09:41;10.60;;;3.20;;
10900;SDS011;5503;53.208;10.392;2022-12-07T15:12:09;11.60;;;4.30;;
10900;SDS011;5503;53.208;10.392;2022-12-07T15:14:39;26.73;;;11.43;;
10900;SDS011;5503;53.208;10.392;2022-12-07T15:17:06;18.80;;;7.23;;
10900;SDS011;5503;53.208;10.392;2022-12-07T15:19:33;11.63;;;4.78;;
10900;SDS011;5503;53.208;10.392;2022-12-07T15:22:02;12.55;;;4.63;;
10900;SDS011;5503;53.208;10.392;2022-12-07T15:24:29;19.27;;;6.40;;
10900;SDS011;5503;53.208;10.392;2022-12-07T15:26:56;17.27;;;5.05;;
10900;SDS011;5503;53.208;10.392;2022-12-07T15:29:23;9.97;;;4.17;;
10900;SDS011;5503;53.208;10.392;2022-12-07T15:31:51;8.00;;;3.67;;
10900;SDS011;5503;53.208;10.392;2022-12-07T15:34:18;10.20;;;2.90;;
10900;SDS011;5503;53.208;10.392;2022-12-07T15:36:45;8.10;;;2.92;;
10900;SDS011;5503;53.208;10.392;2022-12-07T15:39:14;14.32;;;4.53;;
10900;SDS011;5503;53.208;10.392;2022-12-07T15:41:41;8.87;;;4.17;;
10900;SDS011;5503;53.208;10.392;2022-12-07T15:44:09;11.65;;;4.78;;
10900;SDS011;5503;53.208;10.392;2022-12-07T15:46:55;10.73;;;3.13;;